sensor_id;sensor_type;location;lat;lon;timestamp;pressure;altitude;pressure_sealevel;temperature;humidity
59487;BME280;45298;54.918;73.504;2023-01-28T00:01:36;100282.19;;;-9.83;87.61
59487;BME280;45298;54.918;73.504;2023-01-28T00:04:04;100336.88;;;-9.52;87.01
59487;BME280;45298;54.918;73.504;2023-01-28T00:06:33;100321.47;;;-9.52;87.17
59487;BME280;45298;54.918;73.504;2023-01-28T00:09:04;100318.03;;;-9.52;87.30
59487;BME280;45298;54.918;73.504;2023-01-28T00:11:33;100358.00;;;-9.27;86.91
59487;BME280;45298;54.918;73.504;2023-01-28T00:14:02;100328.56;;;-9.40;87.03
59487;BME280;45298;54.918;73.504;2023-01-28T00:16:32;100325.91;;;-9.45;86.56
59487;BME280;45298;54.918;73.504;2023-01-28T00:19:00;100337.09;;;-9.43;87.42
59487;BME280;45298;54.918;73.504;2023-01-28T00:21:29;100338.91;;;-9.38;86.86
59487;BME280;45298;54.918;73.504;2023-01-28T00:23:58;100326.81;;;-9.43;86.77
59487;BME280;45298;54.918;73.504;2023-01-28T00:26:26;100322.75;;;-9.34;86.74
59487;BME280;45298;54.918;73.504;2023-01-28T00:28:55;100320.78;;;-9.45;87.33
59487;BME280;45298;54.918;73.504;2023-01-28T00:31:25;100324.41;;;-9.36;87.18
59487;BME280;45298;54.918;73.504;2023-01-28T00:33:55;100332.19;;;-9.33;86.71
59487;BME280;45298;54.918;73.504;2023-01-28T00:36:25;100242.59;;;-9.94;86.25
59487;BME280;45298;54.918;73.504;2023-01-28T00:38:56;100320.63;;;-9.51;87.01
59487;BME280;45298;54.918;73.504;2023-01-28T00:41:28;100321.41;;;-9.55;86.45
59487;BME280;45298;54.918;73.504;2023-01-28T00:43:57;100312.59;;;-9.65;86.28
59487;BME280;45298;54.918;73.504;2023-01-28T00:46:28;100304.00;;;-9.67;86.30
59487;BME280;45298;54.918;73.504;2023-01-28T00:48:57;100341.16;;;-9.51;86.89
59487;BME280;45298;54.918;73.504;2023-01-28T00:51:25;100318.56;;;-9.66;86.75
59487;BME280;45298;54.918;73.504;2023-01-28T00:53:53;100282.19;;;-9.83;86.77
59487;BME280;45298;54.918;73.504;2023-01-28T00:56:22;100329.03;;;-9.58;86.39
59487;BME280;45298;54.918;73.504;2023-01-28T00:58:51;100323.69;;;-9.66;86.20
59487;BME280;45298;54.918;73.504;2023-01-28T01:01:24;100327.94;;;-9.66;86.00
59487;BME280;45298;54.918;73.504;2023-01-28T01:03:54;100248.22;;;-10.08;86.88
59487;BME280;45298;54.918;73.504;2023-01-28T01:06:38;100316.84;;;-9.65;86.14
59487;BME280;45298;54.918;73.504;2023-01-28T01:09:09;100268.34;;;-9.91;86.38
59487;BME280;45298;54.918;73.504;2023-01-28T01:11:39;100281.28;;;-9.87;86.54
59487;BME280;45298;54.918;73.504;2023-01-28T01:14:09;100286.47;;;-9.83;86.68
59487;BME280;45298;54.918;73.504;2023-01-28T01:16:42;100265.69;;;-9.94;86.70
59487;BME280;45298;54.918;73.504;2023-01-28T01:19:10;100277.97;;;-9.81;85.92
59487;BME280;45298;54.918;73.504;2023-01-28T01:21:39;100289.22;;;-9.76;86.36
59487;BME280;45298;54.918;73.504;2023-01-28T01:24:07;100221.63;;;-10.11;85.76
59487;BME280;45298;54.918;73.504;2023-01-28T01:26:36;100284.19;;;-9.73;85.99
59487;BME280;45298;54.918;73.504;2023-01-28T01:29:04;100278.97;;;-9.76;86.35
59487;BME280;45298;54.918;73.504;2023-01-28T01:31:33;100275.78;;;-9.65;86.15
59487;BME280;45298;54.918;73.504;2023-01-28T01:34:02;100253.28;;;-9.76;85.77
59487;BME280;45298;54.918;73.504;2023-01-28T01:36:30;100275.13;;;-9.57;85.64
59487;BME280;45298;54.918;73.504;2023-01-28T01:38:59;100265.75;;;-9.56;85.37
59487;BME280;45298;54.918;73.504;2023-01-28T01:41:30;100298.78;;;-9.33;85.24
59487;BME280;45298;54.918;73.504;2023-01-28T01:44:04;100304.84;;;-9.30;84.91
59487;BME280;45298;54.918;73.504;2023-01-28T01:49:26;100281.84;;;-9.25;84.99
59487;BME280;45298;54.918;73.504;2023-01-28T01:52:02;100278.25;;;-9.32;84.79
59487;BME280;45298;54.918;73.504;2023-01-28T01:54:34;100247.28;;;-9.39;84.98
59487;BME280;45298;54.918;73.504;2023-01-28T01:57:07;100273.22;;;-9.27;84.86
59487;BME280;45298;54.918;73.504;2023-01-28T01:59:38;100156.25;;;-9.91;84.21
59487;BME280;45298;54.918;73.504;2023-01-28T02:02:10;100260.53;;;-9.21;84.51
59487;BME280;45298;54.918;73.504;2023-01-28T02:04:41;100251.16;;;-9.19;84.48
59487;BME280;45298;54.918;73.504;2023-01-28T02:07:15;100254.63;;;-9.17;84.77
59487;BME280;45298;54.918;73.504;2023-01-28T02:09:46;100254.69;;;-9.14;84.46
59487;BME280;45298;54.918;73.504;2023-01-28T02:12:21;100271.34;;;-8.96;84.45
59487;BME280;45298;54.918;73.504;2023-01-28T02:14:58;100283.38;;;-8.92;84.28
59487;BME280;45298;54.918;73.504;2023-01-28T02:17:28;100255.69;;;-9.07;84.39
59487;BME280;45298;54.918;73.504;2023-01-28T02:20:02;100286.97;;;-8.85;84.38
59487;BME280;45298;54.918;73.504;2023-01-28T02:26:02;100293.03;;;-8.82;84.13
59487;BME280;45298;54.918;73.504;2023-01-28T02:28:47;100255.78;;;-9.02;83.90
59487;BME280;45298;54.918;73.504;2023-01-28T02:31:30;100253.13;;;-9.05;84.18
59487;BME280;45298;54.918;73.504;2023-01-28T02:34:19;100255.78;;;-9.01;83.95
59487;BME280;45298;54.918;73.504;2023-01-28T02:37:21;100292.22;;;-8.79;84.10
59487;BME280;45298;54.918;73.504;2023-01-28T02:40:02;100293.91;;;-8.81;83.89
59487;BME280;45298;54.918;73.504;2023-01-28T02:42:35;100282.75;;;-8.82;84.30
59487;BME280;45298;54.918;73.504;2023-01-28T02:45:21;100266.41;;;-8.85;83.90
59487;BME280;45298;54.918;73.504;2023-01-28T02:47:51;100255.19;;;-8.89;83.91
59487;BME280;45298;54.918;73.504;2023-01-28T02:50:42;100267.19;;;-8.88;84.11
59487;BME280;45298;54.918;73.504;2023-01-28T02:53:43;100275.22;;;-8.72;84.37
59487;BME280;45298;54.918;73.504;2023-01-28T02:56:34;100133.94;;;-9.55;83.78
59487;BME280;45298;54.918;73.504;2023-01-28T02:59:12;100271.81;;;-8.71;83.79
59487;BME280;45298;54.918;73.504;2023-01-28T03:05:02;100258.97;;;-8.71;84.51
59487;BME280;45298;54.918;73.504;2023-01-28T03:07:36;100211.25;;;-9.00;83.85
59487;BME280;45298;54.918;73.504;2023-01-28T03:10:08;100220.75;;;-8.97;83.92
59487;BME280;45298;54.918;73.504;2023-01-28T03:12:43;100231.22;;;-8.88;83.54
59487;BME280;45298;54.918;73.504;2023-01-28T03:15:38;100241.50;;;-8.88;83.44
59487;BME280;45298;54.918;73.504;2023-01-28T03:18:31;100207.75;;;-9.05;83.02
59487;BME280;45298;54.918;73.504;2023-01-28T03:21:30;100235.50;;;-8.88;83.66
59487;BME280;45298;54.918;73.504;2023-01-28T03:24:26;100224.22;;;-8.95;82.97
59487;BME280;45298;54.918;73.504;2023-01-28T03:30:46;100231.97;;;-8.92;82.65
59487;BME280;45298;54.918;73.504;2023-01-28T03:33:47;100220.78;;;-8.96;82.47
59487;BME280;45298;54.918;73.504;2023-01-28T03:36:36;100246.84;;;-8.78;82.43
59487;BME280;45298;54.918;73.504;2023-01-28T03:39:43;100200.97;;;-9.01;82.28
59487;BME280;45298;54.918;73.504;2023-01-28T03:42:14;100158.44;;;-9.28;82.23
59487;BME280;45298;54.918;73.504;2023-01-28T03:45:01;100242.53;;;-8.78;81.85
59487;BME280;45298;54.918;73.504;2023-01-28T03:47:32;100210.56;;;-8.91;82.31
59487;BME280;45298;54.918;73.504;2023-01-28T03:50:04;100187.31;;;-8.99;81.64
59487;BME280;45298;54.918;73.504;2023-01-28T03:52:53;100234.13;;;-8.71;81.73
59487;BME280;45298;54.918;73.504;2023-01-28T03:55:48;100260.88;;;-8.61;81.88
59487;BME280;45298;54.918;73.504;2023-01-28T03:58:19;100210.78;;;-8.82;81.51
59487;BME280;45298;54.918;73.504;2023-01-28T04:00:47;100247.19;;;-8.60;81.52
59487;BME280;45298;54.918;73.504;2023-01-28T04:03:18;100220.56;;;-8.62;80.89
59487;BME280;45298;54.918;73.504;2023-01-28T04:06:00;100203.22;;;-8.72;80.89
59487;BME280;45298;54.918;73.504;2023-01-28T04:08:51;100221.63;;;-8.52;81.21
59487;BME280;45298;54.918;73.504;2023-01-28T04:11:49;100231.81;;;-8.57;80.74
59487;BME280;45298;54.918;73.504;2023-01-28T04:14:32;100215.38;;;-8.65;80.56
59487;BME280;45298;54.918;73.504;2023-01-28T04:17:07;100228.56;;;-8.48;79.78
59487;BME280;45298;54.918;73.504;2023-01-28T04:19:38;100233.75;;;-8.43;79.70
59487;BME280;45298;54.918;73.504;2023-01-28T04:22:10;100238.25;;;-8.31;80.36
59487;BME280;45298;54.918;73.504;2023-01-28T04:24:41;100220.03;;;-8.42;80.02
59487;BME280;45298;54.918;73.504;2023-01-28T04:27:10;100239.06;;;-8.34;80.04
59487;BME280;45298;54.918;73.504;2023-01-28T04:29:39;100246.16;;;-8.21;79.59
59487;BME280;45298;54.918;73.504;2023-01-28T04:32:34;100235.75;;;-8.27;80.02
59487;BME280;45298;54.918;73.504;2023-01-28T04:35:09;100223.63;;;-8.34;79.26
59487;BME280;45298;54.918;73.504;2023-01-28T04:37:53;100260.00;;;-8.12;79.75
59487;BME280;45298;54.918;73.504;2023-01-28T04:40:40;100259.97;;;-8.15;79.12
59487;BME280;45298;54.918;73.504;2023-01-28T04:43:11;100230.59;;;-8.27;79.82
59487;BME280;45298;54.918;73.504;2023-01-28T04:45:53;100242.81;;;-8.15;78.78
59487;BME280;45298;54.918;73.504;2023-01-28T04:48:47;100228.16;;;-8.19;78.93
59487;BME280;45298;54.918;73.504;2023-01-28T04:51:30;100222.22;;;-8.16;78.68
59487;BME280;45298;54.918;73.504;2023-01-28T04:54:23;100237.84;;;-8.04;78.76
59487;BME280;45298;54.918;73.504;2023-01-28T04:56:55;100244.75;;;-8.03;78.81
59487;BME280;45298;54.918;73.504;2023-01-28T04:59:24;100214.50;;;-8.15;78.37
59487;BME280;45298;54.918;73.504;2023-01-28T05:01:52;100228.38;;;-8.07;78.15
59487;BME280;45298;54.918;73.504;2023-01-28T05:04:21;100215.34;;;-8.17;77.98
59487;BME280;45298;54.918;73.504;2023-01-28T05:06:51;100213.69;;;-8.12;78.20
59487;BME280;45298;54.918;73.504;2023-01-28T05:09:25;100198.22;;;-8.15;78.10
59487;BME280;45298;54.918;73.504;2023-01-28T05:11:53;100135.94;;;-8.46;77.66
59487;BME280;45298;54.918;73.504;2023-01-28T05:14:22;100214.75;;;-8.01;78.30
59487;BME280;45298;54.918;73.504;2023-01-28T05:16:58;100190.63;;;-8.08;77.56
59487;BME280;45298;54.918;73.504;2023-01-28T05:19:27;100208.69;;;-8.03;77.84
59487;BME280;45298;54.918;73.504;2023-01-28T05:21:56;100213.06;;;-7.97;77.85
59487;BME280;45298;54.918;73.504;2023-01-28T05:24:37;100197.63;;;-7.97;78.18
59487;BME280;45298;54.918;73.504;2023-01-28T05:27:06;100229.66;;;-7.80;78.07
59487;BME280;45298;54.918;73.504;2023-01-28T05:29:35;100142.25;;;-8.27;77.15
59487;BME280;45298;54.918;73.504;2023-01-28T05:32:05;100184.75;;;-7.99;77.42
59487;BME280;45298;54.918;73.504;2023-01-28T05:34:34;100202.06;;;-7.89;77.74
59487;BME280;45298;54.918;73.504;2023-01-28T05:37:09;100196.00;;;-7.91;77.70
59487;BME280;45298;54.918;73.504;2023-01-28T05:39:38;100202.00;;;-7.92;77.59
59487;BME280;45298;54.918;73.504;2023-01-28T05:42:07;100230.72;;;-7.68;76.68
59487;BME280;45298;54.918;73.504;2023-01-28T05:44:41;100242.75;;;-7.67;76.77
59487;BME280;45298;54.918;73.504;2023-01-28T05:47:42;100234.97;;;-7.69;77.11
59487;BME280;45298;54.918;73.504;2023-01-28T05:50:35;100206.53;;;-7.78;76.54
59487;BME280;45298;54.918;73.504;2023-01-28T05:53:12;100209.16;;;-7.75;76.33
59487;BME280;45298;54.918;73.504;2023-01-28T05:55:47;100229.03;;;-7.63;77.10
59487;BME280;45298;54.918;73.504;2023-01-28T05:58:17;100204.13;;;-7.67;77.21
59487;BME280;45298;54.918;73.504;2023-01-28T06:00:46;100200.66;;;-7.68;76.61
59487;BME280;45298;54.918;73.504;2023-01-28T06:03:18;100195.50;;;-7.68;76.62
59487;BME280;45298;54.918;73.504;2023-01-28T06:05:47;100171.38;;;-7.73;76.65
59487;BME280;45298;54.918;73.504;2023-01-28T06:08:16;100219.06;;;-7.41;76.04
59487;BME280;45298;54.918;73.504;2023-01-28T06:10:45;100135.22;;;-7.82;75.81
59487;BME280;45298;54.918;73.504;2023-01-28T06:13:14;100155.19;;;-7.64;76.43
59487;BME280;45298;54.918;73.504;2023-01-28T06:15:59;100208.06;;;-7.30;76.53
59487;BME280;45298;54.918;73.504;2023-01-28T06:18:54;100189.03;;;-7.41;75.84
59487;BME280;45298;54.918;73.504;2023-01-28T06:21:22;100131.91;;;-7.72;76.26
59487;BME280;45298;54.918;73.504;2023-01-28T06:23:51;100212.50;;;-7.19;75.48
59487;BME280;45298;54.918;73.504;2023-01-28T06:26:20;100210.06;;;-7.08;76.40
59487;BME280;45298;54.918;73.504;2023-01-28T06:28:48;100182.47;;;-7.17;75.51
59487;BME280;45298;54.918;73.504;2023-01-28T06:31:17;100172.91;;;-7.23;76.26
59487;BME280;45298;54.918;73.504;2023-01-28T06:33:46;100166.84;;;-7.28;75.51
59487;BME280;45298;54.918;73.504;2023-01-28T06:36:15;100153.88;;;-7.36;75.83
59487;BME280;45298;54.918;73.504;2023-01-28T06:38:43;100202.19;;;-7.19;76.29
59487;BME280;45298;54.918;73.504;2023-01-28T06:41:12;100200.38;;;-7.25;75.70
59487;BME280;45298;54.918;73.504;2023-01-28T06:43:41;100180.53;;;-7.31;75.81
59487;BME280;45298;54.918;73.504;2023-01-28T06:46:09;100159.84;;;-7.38;74.81
59487;BME280;45298;54.918;73.504;2023-01-28T06:48:38;100189.34;;;-7.13;75.09
59487;BME280;45298;54.918;73.504;2023-01-28T06:51:07;100167.78;;;-7.21;75.68
59487;BME280;45298;54.918;73.504;2023-01-28T06:53:35;100145.44;;;-7.22;75.72
59487;BME280;45298;54.918;73.504;2023-01-28T06:56:04;100161.97;;;-7.06;74.41
59487;BME280;45298;54.918;73.504;2023-01-28T06:58:34;100150.00;;;-7.00;75.38
59487;BME280;45298;54.918;73.504;2023-01-28T07:01:05;100147.47;;;-6.96;73.93
59487;BME280;45298;54.918;73.504;2023-01-28T07:03:35;100137.13;;;-6.98;74.72
59487;BME280;45298;54.918;73.504;2023-01-28T07:06:04;100046.41;;;-7.43;74.51
59487;BME280;45298;54.918;73.504;2023-01-28T07:08:33;100170.16;;;-6.63;73.52
59487;BME280;45298;54.918;73.504;2023-01-28T07:11:02;100146.03;;;-6.65;73.79
59487;BME280;45298;54.918;73.504;2023-01-28T07:13:31;100121.91;;;-6.72;73.38
59487;BME280;45298;54.918;73.504;2023-01-28T07:16:00;100127.13;;;-6.67;73.44
59487;BME280;45298;54.918;73.504;2023-01-28T07:18:29;100153.09;;;-6.47;73.67
59487;BME280;45298;54.918;73.504;2023-01-28T07:20:58;100074.50;;;-6.86;73.62
59487;BME280;45298;54.918;73.504;2023-01-28T07:23:27;100147.13;;;-6.43;74.09
59487;BME280;45298;54.918;73.504;2023-01-28T07:26:00;100117.66;;;-6.66;73.15
59487;BME280;45298;54.918;73.504;2023-01-28T07:28:29;100116.00;;;-6.61;73.69
59487;BME280;45298;54.918;73.504;2023-01-28T07:30:57;100128.94;;;-6.57;73.33
59487;BME280;45298;54.918;73.504;2023-01-28T07:33:26;100140.94;;;-6.59;73.20
59487;BME280;45298;54.918;73.504;2023-01-28T07:35:55;100133.06;;;-6.73;72.45
59487;BME280;45298;54.918;73.504;2023-01-28T07:38:23;100050.03;;;-7.25;73.71
59487;BME280;45298;54.918;73.504;2023-01-28T07:40:52;100117.50;;;-6.84;73.54
59487;BME280;45298;54.918;73.504;2023-01-28T07:43:21;100098.44;;;-7.00;73.06
59487;BME280;45298;54.918;73.504;2023-01-28T07:45:50;100118.22;;;-6.95;73.24
59487;BME280;45298;54.918;73.504;2023-01-28T07:48:18;100080.16;;;-7.21;72.88
59487;BME280;45298;54.918;73.504;2023-01-28T07:50:47;100106.06;;;-7.09;72.15
59487;BME280;45298;54.918;73.504;2023-01-28T07:53:16;100118.09;;;-7.09;73.63
59487;BME280;45298;54.918;73.504;2023-01-28T07:55:48;100126.66;;;-7.12;72.52
59487;BME280;45298;54.918;73.504;2023-01-28T07:58:17;100129.31;;;-7.06;72.37
59487;BME280;45298;54.918;73.504;2023-01-28T08:00:45;100086.09;;;-7.29;72.48
59487;BME280;45298;54.918;73.504;2023-01-28T08:03:14;100117.28;;;-7.04;72.36
59487;BME280;45298;54.918;73.504;2023-01-28T08:05:48;100115.53;;;-7.08;72.55
59487;BME280;45298;54.918;73.504;2023-01-28T08:08:18;100135.53;;;-6.87;72.88
59487;BME280;45298;54.918;73.504;2023-01-28T08:10:47;100047.34;;;-7.36;72.86
59487;BME280;45298;54.918;73.504;2023-01-28T08:13:17;100096.69;;;-7.01;71.86
59487;BME280;45298;54.918;73.504;2023-01-28T08:15:46;100088.16;;;-6.95;73.06
59487;BME280;45298;54.918;73.504;2023-01-28T08:18:15;99993.03;;;-7.53;71.94
59487;BME280;45298;54.918;73.504;2023-01-28T08:20:44;100098.50;;;-6.92;71.81
59487;BME280;45298;54.918;73.504;2023-01-28T08:23:18;100118.34;;;-6.85;72.96
59487;BME280;45298;54.918;73.504;2023-01-28T08:25:49;100093.19;;;-7.06;72.31
59487;BME280;45298;54.918;73.504;2023-01-28T08:28:19;100120.03;;;-6.88;72.57
59487;BME280;45298;54.918;73.504;2023-01-28T08:30:48;100058.53;;;-7.34;71.46
59487;BME280;45298;54.918;73.504;2023-01-28T08:33:18;100085.34;;;-7.15;72.51
59487;BME280;45298;54.918;73.504;2023-01-28T08:35:46;100075.72;;;-7.32;72.24
59487;BME280;45298;54.918;73.504;2023-01-28T08:38:15;100072.25;;;-7.37;72.04
59487;BME280;45298;54.918;73.504;2023-01-28T08:40:46;100069.69;;;-7.35;72.16
59487;BME280;45298;54.918;73.504;2023-01-28T08:43:15;100082.78;;;-7.17;72.64
59487;BME280;45298;54.918;73.504;2023-01-28T08:45:43;100082.03;;;-7.06;72.26
59487;BME280;45298;54.918;73.504;2023-01-28T08:48:15;100072.56;;;-7.06;71.58
59487;BME280;45298;54.918;73.504;2023-01-28T08:50:45;100084.72;;;-6.94;72.84
59487;BME280;45298;54.918;73.504;2023-01-28T08:53:18;100112.28;;;-6.88;71.08
59487;BME280;45298;54.918;73.504;2023-01-28T08:55:47;100101.91;;;-6.97;72.17
59487;BME280;45298;54.918;73.504;2023-01-28T08:58:17;100085.44;;;-7.10;71.51
59487;BME280;45298;54.918;73.504;2023-01-28T09:00:48;100096.53;;;-7.16;71.08
59487;BME280;45298;54.918;73.504;2023-01-28T09:03:17;100068.00;;;-7.32;72.04
59487;BME280;45298;54.918;73.504;2023-01-28T09:05:46;100118.94;;;-7.09;71.28
59487;BME280;45298;54.918;73.504;2023-01-28T09:08:16;100102.47;;;-7.23;72.07
59487;BME280;45298;54.918;73.504;2023-01-28T09:10:45;100115.34;;;-7.23;72.34
59487;BME280;45298;54.918;73.504;2023-01-28T09:13:14;100122.31;;;-7.16;71.67
59487;BME280;45298;54.918;73.504;2023-01-28T09:15:43;100138.63;;;-7.16;71.76
59487;BME280;45298;54.918;73.504;2023-01-28T09:18:12;100094.53;;;-7.42;71.50
59487;BME280;45298;54.918;73.504;2023-01-28T09:20:40;100124.69;;;-7.32;71.36
59487;BME280;45298;54.918;73.504;2023-01-28T09:23:10;100103.00;;;-7.49;72.24
59487;BME280;45298;54.918;73.504;2023-01-28T09:25:39;100090.13;;;-7.51;71.42
59487;BME280;45298;54.918;73.504;2023-01-28T09:28:08;100115.19;;;-7.39;72.42
59487;BME280;45298;54.918;73.504;2023-01-28T09:30:36;100130.59;;;-7.42;72.06
59487;BME280;45298;54.918;73.504;2023-01-28T09:33:07;100105.44;;;-7.62;72.47
59487;BME280;45298;54.918;73.504;2023-01-28T09:35:36;100103.66;;;-7.66;71.31
59487;BME280;45298;54.918;73.504;2023-01-28T09:38:04;100070.75;;;-7.90;72.06
59487;BME280;45298;54.918;73.504;2023-01-28T09:40:39;100094.75;;;-7.90;71.79
59487;BME280;45298;54.918;73.504;2023-01-28T09:43:21;100120.72;;;-7.74;71.85
59487;BME280;45298;54.918;73.504;2023-01-28T09:45:57;100111.13;;;-7.86;71.73
59487;BME280;45298;54.918;73.504;2023-01-28T09:48:36;100085.03;;;-8.09;72.32
59487;BME280;45298;54.918;73.504;2023-01-28T09:51:15;100101.53;;;-7.96;72.28
59487;BME280;45298;54.918;73.504;2023-01-28T09:53:47;100091.03;;;-8.10;71.74
59487;BME280;45298;54.918;73.504;2023-01-28T09:56:27;100081.41;;;-8.24;72.06
59487;BME280;45298;54.918;73.504;2023-01-28T09:59:07;100125.56;;;-7.97;72.44
59487;BME280;45298;54.918;73.504;2023-01-28T10:02:03;100091.59;;;-8.31;72.13
59487;BME280;45298;54.918;73.504;2023-01-28T10:13:18;100091.53;;;-8.36;73.02
59487;BME280;45298;54.918;73.504;2023-01-28T10:19:04;100112.09;;;-8.36;73.18
59487;BME280;45298;54.918;73.504;2023-01-28T10:21:40;100078.34;;;-8.58;73.10
59487;BME280;45298;54.918;73.504;2023-01-28T10:24:13;100123.41;;;-8.26;73.58
59487;BME280;45298;54.918;73.504;2023-01-28T10:26:46;100089.56;;;-8.53;73.54
59487;BME280;45298;54.918;73.504;2023-01-28T10:29:33;100124.84;;;-8.42;73.28
59487;BME280;45298;54.918;73.504;2023-01-28T10:32:14;100121.56;;;-8.35;73.37
59487;BME280;45298;54.918;73.504;2023-01-28T10:34:44;100115.53;;;-8.37;73.30
59487;BME280;45298;54.918;73.504;2023-01-28T10:37:13;100099.91;;;-8.50;74.12
59487;BME280;45298;54.918;73.504;2023-01-28T10:39:44;100082.53;;;-8.63;73.66
59487;BME280;45298;54.918;73.504;2023-01-28T10:42:31;100092.94;;;-8.57;73.95
59487;BME280;45298;54.918;73.504;2023-01-28T10:47:55;100141.19;;;-8.40;74.19
59487;BME280;45298;54.918;73.504;2023-01-28T10:50:29;100109.16;;;-8.61;74.26
59487;BME280;45298;54.918;73.504;2023-01-28T10:53:03;99967.88;;;-9.56;74.02
59487;BME280;45298;54.918;73.504;2023-01-28T10:58:24;100054.34;;;-9.07;74.12
59487;BME280;45298;54.918;73.504;2023-01-28T11:00:56;100132.94;;;-8.74;74.09
59487;BME280;45298;54.918;73.504;2023-01-28T11:03:28;100124.28;;;-8.78;74.41
59487;BME280;45298;54.918;73.504;2023-01-28T11:06:00;100120.03;;;-8.76;74.54
59487;BME280;45298;54.918;73.504;2023-01-28T11:08:30;100153.78;;;-8.59;74.90
59487;BME280;45298;54.918;73.504;2023-01-28T11:10:59;100126.19;;;-8.68;75.31
59487;BME280;45298;54.918;73.504;2023-01-28T11:13:29;100144.19;;;-8.66;74.97
59487;BME280;45298;54.918;73.504;2023-01-28T11:16:04;100110.44;;;-8.85;74.86
59487;BME280;45298;54.918;73.504;2023-01-28T11:18:50;100087.97;;;-8.97;75.02
59487;BME280;45298;54.918;73.504;2023-01-28T11:21:22;100087.97;;;-8.97;75.49
59487;BME280;45298;54.918;73.504;2023-01-28T11:26:32;100100.94;;;-8.89;75.39
59487;BME280;45298;54.918;73.504;2023-01-28T11:29:05;100105.25;;;-8.88;75.57
59487;BME280;45298;54.918;73.504;2023-01-28T11:31:40;100071.44;;;-9.09;75.83
59487;BME280;45298;54.918;73.504;2023-01-28T11:34:16;100107.03;;;-8.85;75.59
59487;BME280;45298;54.918;73.504;2023-01-28T11:37:01;100121.69;;;-8.79;75.85
59487;BME280;45298;54.918;73.504;2023-01-28T11:39:31;100129.53;;;-8.73;75.86
59487;BME280;45298;54.918;73.504;2023-01-28T11:42:11;100115.66;;;-8.82;75.71
59487;BME280;45298;54.918;73.504;2023-01-28T11:44:40;99989.25;;;-9.57;75.81
59487;BME280;45298;54.918;73.504;2023-01-28T11:47:57;100121.69;;;-8.79;75.19
59487;BME280;45298;54.918;73.504;2023-01-28T11:50:21;100075.69;;;-9.12;75.89
59487;BME280;45298;54.918;73.504;2023-01-28T11:56:00;100101.63;;;-8.99;76.12
59487;BME280;45298;54.918;73.504;2023-01-28T12:01:43;100095.72;;;-8.95;76.28
59487;BME280;45298;54.918;73.504;2023-01-28T12:07:34;100089.69;;;-8.97;76.35
59487;BME280;45298;54.918;73.504;2023-01-28T12:10:26;100081.00;;;-9.02;76.94
59487;BME280;45298;54.918;73.504;2023-01-28T12:16:12;100087.81;;;-9.04;76.78
59487;BME280;45298;54.918;73.504;2023-01-28T12:32:58;100084.28;;;-9.09;77.09
59487;BME280;45298;54.918;73.504;2023-01-28T12:38:15;100059.94;;;-9.30;77.22
59487;BME280;45298;54.918;73.504;2023-01-28T12:41:00;100073.03;;;-9.18;76.47
59487;BME280;45298;54.918;73.504;2023-01-28T12:49:20;100086.47;;;-9.31;77.37
59487;BME280;45298;54.918;73.504;2023-01-28T12:57:58;100061.22;;;-9.54;77.34
59487;BME280;45298;54.918;73.504;2023-01-28T13:00:33;100080.19;;;-9.47;77.03
59487;BME280;45298;54.918;73.504;2023-01-28T13:03:37;100060.16;;;-9.64;77.93
59487;BME280;45298;54.918;73.504;2023-01-28T13:06:09;100033.31;;;-9.78;77.57
59487;BME280;45298;54.918;73.504;2023-01-28T13:08:40;100066.34;;;-9.54;78.05
59487;BME280;45298;54.918;73.504;2023-01-28T13:11:13;100026.59;;;-9.73;77.30
59487;BME280;45298;54.918;73.504;2023-01-28T13:13:44;100076.84;;;-9.43;77.92
59487;BME280;45298;54.918;73.504;2023-01-28T13:16:13;100059.63;;;-9.47;77.70
59487;BME280;45298;54.918;73.504;2023-01-28T13:18:45;100074.34;;;-9.38;77.72
59487;BME280;45298;54.918;73.504;2023-01-28T13:26:35;100077.88;;;-9.33;77.99
59487;BME280;45298;54.918;73.504;2023-01-28T13:29:26;100070.22;;;-9.30;77.76
59487;BME280;45298;54.918;73.504;2023-01-28T13:31:58;99946.50;;;-10.01;77.96
59487;BME280;45298;54.918;73.504;2023-01-28T13:35:04;100060.88;;;-9.27;78.14
59487;BME280;45298;54.918;73.504;2023-01-28T13:37:37;100063.44;;;-9.27;77.29
59487;BME280;45298;54.918;73.504;2023-01-28T13:42:41;100018.41;;;-9.53;77.77
59487;BME280;45298;54.918;73.504;2023-01-28T13:47:51;100055.63;;;-9.31;78.12
59487;BME280;45298;54.918;73.504;2023-01-28T13:50:29;100029.66;;;-9.47;77.87
59487;BME280;45298;54.918;73.504;2023-01-28T13:56:19;100027.91;;;-9.49;77.79
59487;BME280;45298;54.918;73.504;2023-01-28T14:20:55;100063.41;;;-9.28;78.18
59487;BME280;45298;54.918;73.504;2023-01-28T14:23:25;100056.50;;;-9.32;77.89
59487;BME280;45298;54.918;73.504;2023-01-28T14:31:26;100031.34;;;-9.49;78.58
59487;BME280;45298;54.918;73.504;2023-01-28T14:34:12;100041.84;;;-9.36;78.37
59487;BME280;45298;54.918;73.504;2023-01-28T14:36:47;100021.13;;;-9.46;78.71
59487;BME280;45298;54.918;73.504;2023-01-28T14:39:20;100056.63;;;-9.24;78.27
59487;BME280;45298;54.918;73.504;2023-01-28T14:41:52;99950.41;;;-9.76;78.68
59487;BME280;45298;54.918;73.504;2023-01-28T14:44:35;100008.28;;;-9.46;78.54
59487;BME280;45298;54.918;73.504;2023-01-28T14:58:26;100002.25;;;-9.48;79.77
59487;BME280;45298;54.918;73.504;2023-01-28T15:00:58;100016.81;;;-9.47;79.15
59487;BME280;45298;54.918;73.504;2023-01-28T15:03:29;100028.91;;;-9.43;79.39
59487;BME280;45298;54.918;73.504;2023-01-28T15:06:15;99957.91;;;-9.87;79.56
59487;BME280;45298;54.918;73.504;2023-01-28T15:08:44;100016.00;;;-9.46;79.75
59487;BME280;45298;54.918;73.504;2023-01-28T15:11:17;99944.22;;;-9.85;79.58
59487;BME280;45298;54.918;73.504;2023-01-28T15:13:53;100026.38;;;-9.39;79.66
59487;BME280;45298;54.918;73.504;2023-01-28T15:16:25;100040.97;;;-9.37;80.08
59487;BME280;45298;54.918;73.504;2023-01-28T15:19:00;100046.22;;;-9.32;79.75
59487;BME280;45298;54.918;73.504;2023-01-28T15:21:31;100041.72;;;-9.44;80.13
59487;BME280;45298;54.918;73.504;2023-01-28T15:24:02;99960.56;;;-9.80;79.86